createdAt,value
2019-05-13T00:01:08.695Z,16.2
2019-05-13T00:01:38.679Z,16.3
2019-05-13T00:02:18.685Z,16.2
2019-05-13T00:02:48.686Z,16.3
2019-05-13T00:04:08.760Z,16.4
2019-05-13T00:04:38.773Z,16.3
2019-05-13T00:05:18.818Z,16.3
2019-05-13T00:06:50.110Z,16.5
2019-05-13T00:07:18.888Z,16.6
2019-05-13T00:08:38.943Z,16.5
2019-05-13T00:09:18.948Z,16.5
2019-05-13T00:09:48.971Z,16.3
2019-05-13T00:10:38.969Z,16.4
2019-05-13T00:11:19.003Z,16.4
2019-05-13T00:12:38.991Z,16.3
2019-05-13T00:13:19.003Z,16.2
2019-05-13T00:14:39.009Z,16.1
2019-05-13T00:15:19.034Z,16.0
2019-05-13T00:16:39.068Z,15.9
2019-05-13T00:17:19.038Z,15.9
2019-05-13T00:18:39.059Z,15.7
2019-05-13T00:19:19.072Z,15.8
2019-05-13T00:19:49.085Z,15.7
2019-05-13T00:20:39.154Z,15.8
2019-05-13T00:21:19.245Z,15.7
2019-05-13T00:21:59.206Z,15.6
2019-05-13T00:22:39.225Z,15.6
2019-05-13T00:23:19.227Z,15.6
2019-05-13T00:24:39.286Z,15.5
2019-05-13T00:25:19.325Z,15.6
2019-05-13T00:25:59.369Z,15.5
2019-05-13T00:26:39.356Z,15.5
2019-05-13T00:27:19.353Z,15.5
2019-05-13T00:28:39.424Z,15.5
2019-05-13T00:29:19.431Z,15.5
2019-05-13T00:29:49.428Z,15.4
2019-05-13T00:30:39.432Z,15.4
2019-05-13T00:31:19.435Z,15.3
2019-05-13T00:32:39.468Z,15.3
2019-05-13T00:33:19.475Z,15.3
2019-05-13T00:34:39.490Z,15.1
2019-05-13T00:35:19.497Z,15.0
2019-05-13T00:36:39.519Z,14.9
2019-05-13T00:37:19.525Z,14.9
2019-05-13T00:38:39.584Z,14.7
2019-05-13T00:39:19.600Z,14.6
2019-05-13T00:39:49.605Z,14.6
2019-05-13T00:40:39.618Z,14.4
2019-05-13T00:41:19.621Z,14.4
2019-05-13T00:42:39.682Z,14.1
2019-05-13T00:43:19.678Z,14.0
2019-05-13T00:43:49.706Z,14.0
2019-05-13T00:45:09.774Z,13.8
2019-05-13T00:45:49.779Z,13.7
2019-05-13T00:46:19.898Z,13.7
2019-05-13T00:47:39.895Z,13.5
2019-05-13T00:48:19.888Z,13.4
2019-05-13T00:49:39.917Z,13.3
2019-05-13T00:51:09.942Z,13.2
2019-05-13T00:51:49.948Z,13.1
2019-05-13T00:52:19.996Z,13.1
2019-05-13T00:53:39.991Z,12.9
2019-05-13T00:54:19.991Z,12.9
2019-05-13T00:55:50.018Z,12.7
2019-05-13T00:56:20.015Z,12.8
2019-05-13T00:57:40.067Z,12.7
2019-05-13T00:58:20.057Z,12.7
2019-05-13T00:59:40.071Z,12.8
2019-05-13T01:01:10.114Z,12.9
2019-05-13T01:01:50.172Z,12.9
2019-05-13T01:02:20.159Z,12.9
2019-05-13T01:03:40.212Z,13.0
2019-05-13T01:04:20.227Z,13.1
2019-05-13T01:05:50.258Z,13.1
2019-05-13T01:06:20.277Z,13.1
2019-05-13T01:07:40.315Z,13.2
2019-05-13T01:08:20.314Z,13.2
2019-05-13T01:09:40.356Z,13.4
2019-05-13T01:11:10.366Z,13.4
2019-05-13T01:11:50.374Z,13.4
2019-05-13T01:12:20.379Z,13.4
2019-05-13T01:13:40.401Z,13.3
2019-05-13T01:14:20.419Z,13.4
2019-05-13T01:15:50.456Z,13.4
2019-05-13T01:16:20.456Z,13.3
2019-05-13T01:17:00.607Z,13.3
2019-05-13T01:17:40.506Z,13.4
2019-05-13T01:18:20.529Z,13.2
2019-05-13T01:19:00.563Z,13.2
2019-05-13T01:19:40.547Z,13.2
2019-05-13T01:21:10.585Z,13.2
2019-05-13T01:21:50.625Z,13.3
2019-05-13T01:22:20.629Z,13.4
2019-05-13T01:22:50.655Z,13.3
2019-05-13T01:24:10.709Z,13.7
2019-05-13T01:24:50.718Z,13.8
2019-05-13T01:26:10.736Z,13.9
2019-05-13T01:26:50.779Z,14.0
2019-05-13T01:27:32.898Z,14.0
2019-05-13T01:28:10.823Z,14.0
2019-05-13T01:28:50.826Z,14.0
2019-05-13T01:29:20.853Z,14.0
2019-05-13T01:29:50.867Z,14.0
2019-05-13T01:30:40.911Z,13.9
2019-05-13T01:31:23.792Z,13.8
2019-05-13T01:31:50.946Z,13.9
2019-05-13T01:32:20.985Z,13.9
2019-05-13T01:32:50.983Z,13.8
2019-05-13T01:34:10.990Z,13.9
2019-05-13T01:34:51.002Z,13.9
2019-05-13T01:36:13.228Z,13.9
2019-05-13T01:36:53.074Z,13.8
2019-05-13T01:38:43.358Z,13.7
2019-05-13T01:39:21.079Z,13.7
2019-05-13T01:39:51.161Z,13.7
2019-05-13T01:41:13.464Z,13.7
2019-05-13T01:41:51.113Z,13.7
2019-05-13T01:43:11.210Z,13.6
2019-05-13T01:43:51.204Z,13.4
2019-05-13T01:44:21.199Z,13.6
2019-05-13T01:44:51.261Z,13.4
2019-05-13T01:45:43.711Z,13.4
2019-05-13T01:46:21.250Z,13.3
2019-05-13T01:46:53.288Z,13.2
2019-05-13T01:47:21.283Z,13.2
2019-05-13T01:47:51.293Z,13.1
2019-05-13T01:48:33.261Z,13.0
2019-05-13T01:49:13.244Z,13.0
2019-05-13T01:49:51.323Z,12.9
2019-05-13T01:50:33.694Z,12.8
2019-05-13T01:51:13.167Z,12.8
2019-05-13T01:51:51.342Z,12.7
2019-05-13T01:52:31.411Z,12.6
2019-05-13T01:53:11.377Z,12.6
2019-05-13T01:53:53.393Z,12.6
2019-05-13T01:54:21.428Z,12.6
2019-05-13T01:54:51.408Z,12.5
2019-05-13T01:55:43.698Z,12.4
2019-05-13T01:56:23.514Z,12.5
2019-05-13T01:56:53.466Z,12.5
2019-05-13T01:57:23.605Z,12.4
2019-05-13T01:57:53.292Z,12.3
2019-05-13T01:58:33.716Z,12.2
2019-05-13T01:59:11.461Z,12.2
2019-05-13T01:59:53.613Z,12.1
2019-05-13T02:00:31.482Z,12.1
2019-05-13T02:01:13.651Z,12.0
2019-05-13T02:01:51.493Z,11.9
2019-05-13T02:02:33.639Z,11.9
2019-05-13T02:03:13.722Z,11.8
2019-05-13T02:03:51.581Z,11.8
2019-05-13T02:04:21.609Z,11.7
2019-05-13T02:04:53.231Z,11.7
2019-05-13T02:05:43.769Z,11.8
2019-05-13T02:06:23.984Z,11.6
2019-05-13T02:06:51.770Z,11.6
2019-05-13T02:07:21.809Z,11.7
2019-05-13T02:07:57.549Z,11.6
2019-05-13T02:08:33.620Z,11.5
2019-05-13T02:09:13.997Z,11.5
2019-05-13T02:09:53.369Z,11.4
2019-05-13T02:11:13.258Z,11.3
2019-05-13T02:11:53.785Z,11.3
2019-05-13T02:12:33.980Z,11.3
2019-05-13T02:13:14.588Z,11.2
2019-05-13T02:13:53.922Z,11.2
2019-05-13T02:14:23.625Z,11.2
2019-05-13T02:14:53.386Z,11.2
2019-05-13T02:15:42.016Z,11.1
2019-05-13T02:16:24.236Z,11.2
2019-05-13T02:16:53.522Z,11.5
2019-05-13T02:17:23.405Z,11.8
2019-05-13T02:17:53.723Z,11.8
2019-05-13T02:19:14.094Z,12.0
2019-05-13T02:19:54.022Z,12.1
2019-05-13T02:21:13.889Z,12.2
2019-05-13T02:21:54.124Z,12.3
2019-05-13T02:23:14.334Z,12.5
2019-05-13T02:23:53.618Z,12.4
2019-05-13T02:24:23.636Z,12.5
2019-05-13T02:24:53.488Z,12.4
2019-05-13T02:25:43.555Z,12.3
2019-05-13T02:26:23.987Z,12.3
2019-05-13T02:26:54.282Z,12.4
2019-05-13T02:27:22.359Z,12.3
2019-05-13T02:27:54.192Z,12.3
2019-05-13T02:29:14.291Z,12.1
2019-05-13T02:29:53.996Z,12.1
2019-05-13T02:31:16.522Z,12.0
2019-05-13T02:31:56.027Z,11.9
2019-05-13T02:33:42.612Z,11.8
2019-05-13T02:34:23.103Z,11.7
2019-05-13T02:35:53.247Z,11.8
2019-05-13T02:36:22.908Z,11.7
2019-05-13T02:37:12.930Z,11.7
2019-05-13T02:37:52.739Z,11.8
2019-05-13T02:38:28.477Z,11.8
2019-05-13T02:39:12.982Z,11.9
2019-05-13T02:39:53.197Z,11.9
2019-05-13T02:41:13.539Z,11.9
2019-05-13T02:41:52.976Z,11.9
2019-05-13T02:43:45.144Z,11.9
2019-05-13T02:44:22.824Z,12.0
2019-05-13T02:45:12.823Z,12.0
2019-05-13T02:45:53.617Z,12.1
2019-05-13T02:46:22.835Z,12.0
2019-05-13T02:47:12.841Z,12.0
2019-05-13T02:47:52.847Z,11.9
2019-05-13T02:48:23.768Z,11.9
2019-05-13T02:49:43.258Z,11.9
2019-05-13T02:51:43.265Z,11.9
2019-05-13T02:52:22.993Z,11.9
2019-05-13T02:53:43.651Z,11.9
2019-05-13T02:54:23.115Z,11.8
2019-05-13T02:55:13.057Z,11.9
2019-05-13T02:55:53.060Z,11.9
2019-05-13T02:56:23.056Z,11.8
2019-05-13T02:57:13.072Z,11.9
2019-05-13T02:57:53.071Z,11.8
2019-05-13T02:58:25.224Z,12.0
2019-05-13T02:59:13.485Z,12.0
2019-05-13T02:59:53.092Z,12.1
2019-05-13T03:01:43.351Z,12.8
2019-05-13T03:02:23.128Z,12.9
2019-05-13T03:03:44.351Z,13.1
2019-05-13T03:04:23.613Z,13.1
2019-05-13T03:05:13.884Z,13.2
2019-05-13T03:05:53.535Z,13.3
2019-05-13T03:06:23.266Z,13.4
2019-05-13T03:07:13.268Z,13.5
2019-05-13T03:07:53.314Z,13.6
2019-05-13T03:08:39.055Z,13.7
2019-05-13T03:09:13.308Z,13.7
2019-05-13T03:09:53.335Z,13.7
2019-05-13T03:10:33.455Z,13.9
2019-05-13T03:11:43.372Z,14.1
2019-05-13T03:12:23.367Z,14.2
2019-05-13T03:13:43.430Z,14.4
2019-05-13T03:14:23.987Z,14.3
2019-05-13T03:15:13.696Z,14.4
2019-05-13T03:15:53.587Z,14.4
2019-05-13T03:16:23.582Z,14.5
2019-05-13T03:17:13.599Z,14.5
2019-05-13T03:17:53.610Z,14.6
2019-05-13T03:18:23.615Z,14.7
2019-05-13T03:19:13.772Z,14.8
2019-05-13T03:19:53.638Z,14.9
2019-05-13T03:21:43.666Z,14.9
2019-05-13T03:22:23.656Z,14.9
2019-05-13T03:23:44.419Z,14.9
2019-05-13T03:24:23.720Z,14.8
2019-05-13T03:25:13.729Z,14.9
2019-05-13T03:25:54.089Z,14.8
2019-05-13T03:26:23.853Z,14.8
2019-05-13T03:27:13.806Z,14.7
2019-05-13T03:27:54.375Z,14.7
2019-05-13T03:28:23.855Z,14.6
2019-05-13T03:29:13.869Z,14.4
2019-05-13T03:29:53.869Z,14.6
2019-05-13T03:31:46.145Z,14.5
2019-05-13T03:32:52.011Z,14.4
2019-05-13T03:33:27.649Z,14.4
2019-05-13T03:34:45.729Z,14.5
2019-05-13T03:35:26.423Z,14.4
2019-05-13T03:36:15.840Z,14.4
2019-05-13T03:36:56.563Z,14.4
2019-05-13T03:37:44.126Z,14.4
2019-05-13T03:38:24.119Z,14.2
2019-05-13T03:39:16.189Z,14.2
2019-05-13T03:39:54.133Z,14.1
2019-05-13T03:40:24.132Z,14.2
2019-05-13T03:41:44.173Z,14.1
2019-05-13T03:42:44.176Z,14.2
2019-05-13T03:43:24.182Z,14.2
2019-05-13T03:44:44.218Z,14.5
2019-05-13T03:45:24.215Z,14.5
2019-05-13T03:46:44.260Z,14.6
2019-05-13T03:47:44.291Z,14.6
2019-05-13T03:48:24.304Z,14.9
2019-05-13T03:49:44.423Z,15.0
2019-05-13T03:50:24.418Z,15.1
2019-05-13T03:50:54.411Z,15.2
2019-05-13T03:53:44.520Z,15.3
2019-05-13T03:54:24.521Z,15.3
2019-05-13T03:54:54.530Z,15.3
2019-05-13T03:56:44.621Z,15.1
2019-05-13T03:57:44.673Z,15.1
2019-05-13T03:58:24.656Z,15.2
2019-05-13T03:58:54.661Z,15.2
2019-05-13T04:00:14.687Z,15.0
2019-05-13T04:00:54.691Z,15.2
2019-05-13T04:03:14.741Z,15.3
2019-05-13T04:03:54.750Z,15.4
2019-05-13T04:04:24.743Z,15.4
2019-05-13T04:05:44.856Z,15.4
2019-05-13T04:06:14.852Z,15.4
2019-05-13T04:06:54.860Z,15.3
2019-05-13T04:07:44.875Z,15.4
2019-05-13T04:08:14.946Z,15.4
2019-05-13T04:08:54.957Z,15.5
2019-05-13T04:10:54.987Z,15.5
2019-05-13T04:11:24.976Z,15.5
2019-05-13T04:13:05.058Z,15.7
2019-05-13T04:13:45.109Z,15.5
2019-05-13T04:14:15.101Z,15.7
2019-05-13T04:14:55.105Z,15.6
2019-05-13T04:15:25.103Z,15.6
2019-05-13T04:16:05.116Z,15.6
2019-05-13T04:16:45.114Z,15.6
2019-05-13T04:17:25.133Z,15.5
2019-05-13T04:18:45.157Z,15.4
2019-05-13T04:19:15.183Z,15.4
2019-05-13T04:19:55.163Z,15.3
2019-05-13T04:20:25.175Z,15.3
2019-05-13T04:21:45.182Z,15.2
2019-05-13T04:22:35.212Z,15.4
2019-05-13T04:23:15.214Z,15.5
2019-05-13T04:23:55.192Z,15.5
2019-05-13T04:24:25.205Z,15.6
2019-05-13T04:25:45.222Z,15.5
2019-05-13T04:26:15.394Z,15.6
2019-05-13T04:26:55.270Z,15.6
2019-05-13T04:28:15.295Z,15.6
2019-05-13T04:28:55.330Z,15.6
2019-05-13T04:30:15.334Z,15.8
2019-05-13T04:30:55.373Z,15.9
2019-05-13T04:31:25.386Z,15.9
2019-05-13T04:32:55.389Z,15.9
2019-05-13T04:34:15.481Z,16.0
2019-05-13T04:34:55.524Z,16.0
2019-05-13T04:36:15.587Z,16.1
2019-05-13T04:36:55.584Z,16.1
2019-05-13T04:38:15.601Z,16.2
2019-05-13T04:38:55.640Z,16.0
2019-05-13T04:40:15.727Z,16.0
2019-05-13T04:40:55.719Z,16.1
2019-05-13T04:41:25.747Z,16.1
2019-05-13T04:42:15.740Z,16.1
2019-05-13T04:42:55.741Z,16.1
2019-05-13T04:44:15.828Z,16.1
2019-05-13T04:44:55.778Z,16.1
2019-05-13T04:46:15.863Z,16.3
2019-05-13T04:46:55.846Z,16.3
2019-05-13T04:48:15.869Z,16.2
2019-05-13T04:48:55.877Z,16.4
2019-05-13T04:50:15.878Z,16.3
2019-05-13T04:50:55.911Z,16.3
2019-05-13T04:51:25.960Z,16.3
2019-05-13T04:52:16.011Z,16.3
2019-05-13T04:52:56.074Z,16.3
2019-05-13T04:54:16.099Z,16.4
2019-05-13T04:54:56.149Z,16.4
2019-05-13T04:56:16.155Z,16.3
2019-05-13T04:56:56.200Z,16.4
2019-05-13T04:58:16.202Z,16.4
2019-05-13T04:58:56.221Z,16.4
2019-05-13T05:00:16.532Z,16.4
2019-05-13T05:01:01.927Z,16.4
2019-05-13T05:01:26.364Z,16.4
2019-05-13T05:02:16.378Z,16.4
2019-05-13T05:02:56.420Z,16.4
2019-05-13T05:04:23.760Z,16.4
2019-05-13T05:04:56.430Z,16.4
2019-05-13T05:06:16.431Z,16.4
2019-05-13T05:06:56.422Z,16.4
2019-05-13T05:08:16.465Z,16.5
2019-05-13T05:08:56.445Z,16.5
2019-05-13T05:10:28.948Z,16.5
2019-05-13T05:10:56.573Z,16.6
2019-05-13T05:11:26.580Z,16.7
2019-05-13T05:12:16.605Z,16.7
2019-05-13T05:12:56.664Z,16.6
2019-05-13T05:13:26.647Z,16.7
2019-05-13T05:14:46.746Z,16.5
2019-05-13T05:15:26.748Z,16.7
2019-05-13T05:15:56.760Z,16.6
2019-05-13T05:16:26.765Z,16.6
2019-05-13T05:17:16.804Z,16.6
2019-05-13T05:17:56.834Z,16.7
2019-05-13T05:18:26.826Z,16.7
2019-05-13T05:19:47.499Z,16.7
2019-05-13T05:20:26.880Z,16.6
2019-05-13T05:21:46.911Z,16.6
2019-05-13T05:23:16.943Z,16.6
2019-05-13T05:23:56.943Z,16.6
2019-05-13T05:24:26.944Z,16.6
2019-05-13T05:25:46.957Z,16.6
2019-05-13T05:26:26.969Z,16.6
2019-05-13T05:27:16.974Z,16.7
2019-05-13T05:27:58.325Z,16.6
2019-05-13T05:28:26.986Z,16.7
2019-05-13T05:29:47.051Z,16.6
2019-05-13T05:30:27.056Z,16.5
2019-05-13T05:31:47.198Z,16.4
2019-05-13T05:33:17.221Z,16.4
2019-05-13T05:33:57.227Z,16.5
2019-05-13T05:34:27.266Z,16.6
2019-05-13T05:35:47.447Z,16.4
2019-05-13T05:36:27.422Z,16.3
2019-05-13T05:37:17.435Z,16.4
2019-05-13T05:37:57.439Z,16.4
2019-05-13T05:38:27.453Z,16.4
2019-05-13T05:39:47.510Z,16.3
2019-05-13T05:40:31.519Z,16.3
2019-05-13T05:41:47.560Z,16.4
2019-05-13T05:43:17.551Z,16.5
2019-05-13T05:43:57.572Z,16.5
2019-05-13T05:44:27.588Z,16.4
2019-05-13T05:45:47.593Z,16.5
2019-05-13T05:46:27.603Z,16.5
2019-05-13T05:47:17.621Z,16.5
2019-05-13T05:47:57.619Z,16.5
2019-05-13T05:48:27.626Z,16.4
2019-05-13T05:49:47.646Z,16.6
2019-05-13T05:50:27.655Z,16.4
2019-05-13T05:51:47.683Z,16.5
2019-05-13T05:53:17.715Z,16.5
2019-05-13T05:53:57.700Z,16.5
2019-05-13T05:54:27.717Z,16.6
2019-05-13T05:55:47.755Z,16.5
2019-05-13T05:56:27.804Z,16.6
2019-05-13T05:57:17.794Z,16.6
2019-05-13T05:57:57.783Z,16.5
2019-05-13T05:58:27.797Z,16.6
2019-05-13T05:59:47.845Z,16.5
2019-05-13T06:00:27.895Z,16.6
2019-05-13T06:01:47.910Z,16.5
2019-05-13T06:03:17.925Z,16.6
2019-05-13T06:03:57.958Z,16.6
2019-05-13T06:04:27.996Z,16.6
2019-05-13T06:05:48.063Z,16.6
2019-05-13T06:06:28.046Z,16.7
2019-05-13T06:07:28.053Z,16.8
2019-05-13T06:08:48.052Z,16.8
2019-05-13T06:09:28.099Z,16.8
2019-05-13T06:09:58.080Z,16.9
2019-05-13T06:10:42.489Z,16.9
2019-05-13T06:11:48.127Z,16.9
2019-05-13T06:12:48.105Z,16.9
2019-05-13T06:13:28.124Z,16.9
2019-05-13T06:13:58.140Z,16.9
2019-05-13T06:14:28.156Z,16.9
2019-05-13T06:15:51.147Z,17.0
2019-05-13T06:16:28.174Z,17.0
2019-05-13T06:17:18.207Z,17.1
2019-05-13T06:17:58.237Z,17.0
2019-05-13T06:18:28.266Z,17.0
2019-05-13T06:19:48.285Z,17.1
2019-05-13T06:20:28.296Z,17.0
2019-05-13T06:20:58.373Z,17.1
2019-05-13T06:21:28.434Z,17.1
2019-05-13T06:22:28.512Z,17.1
2019-05-13T06:24:18.568Z,17.0
2019-05-13T06:24:58.619Z,17.0
2019-05-13T06:25:48.679Z,17.0
2019-05-13T06:26:28.692Z,16.8
2019-05-13T06:27:21.067Z,16.9
2019-05-13T06:27:58.764Z,16.8
2019-05-13T06:28:48.770Z,16.7
2019-05-13T06:29:28.784Z,16.7
2019-05-13T06:29:58.792Z,16.7
2019-05-13T06:31:18.794Z,16.7
2019-05-13T06:32:14.790Z,16.6
2019-05-13T06:32:58.819Z,16.7
2019-05-13T06:34:20.880Z,16.7
2019-05-13T06:35:01.038Z,16.8
2019-05-13T06:35:48.899Z,16.7
2019-05-13T06:36:31.353Z,16.6
2019-05-13T06:37:18.901Z,16.8
2019-05-13T06:38:01.158Z,16.7
2019-05-13T06:38:51.063Z,16.8
2019-05-13T06:39:31.349Z,16.9
2019-05-13T06:39:59.055Z,17.0
2019-05-13T06:41:19.074Z,16.9
2019-05-13T06:41:59.089Z,16.9
2019-05-13T06:43:01.386Z,16.9
2019-05-13T06:44:21.366Z,17.0
2019-05-13T06:45:01.235Z,17.1
2019-05-13T06:45:51.141Z,17.2
2019-05-13T06:46:29.231Z,17.3
2019-05-13T06:46:59.252Z,17.2
2019-05-13T06:48:19.422Z,17.2
2019-05-13T06:48:59.423Z,17.3
2019-05-13T06:49:51.442Z,17.3
2019-05-13T06:50:29.437Z,17.3
2019-05-13T06:50:59.449Z,17.2
2019-05-13T06:51:49.456Z,17.3
2019-05-13T06:52:51.338Z,17.3
2019-05-13T06:53:31.553Z,17.2
2019-05-13T06:53:59.467Z,17.3
2019-05-13T06:54:51.909Z,17.2
2019-05-13T06:55:31.553Z,17.1
2019-05-13T06:56:01.489Z,17.1
2019-05-13T06:56:51.694Z,17.1
2019-05-13T06:57:51.672Z,17.1
2019-05-13T06:58:29.529Z,17.3
2019-05-13T06:59:01.436Z,17.2
2019-05-13T06:59:51.646Z,17.1
2019-05-13T07:00:33.955Z,17.2
2019-05-13T07:01:02.877Z,17.2
2019-05-13T07:01:51.341Z,17.2
2019-05-13T07:02:51.657Z,17.2
2019-05-13T07:03:31.979Z,17.2
2019-05-13T07:04:01.647Z,17.2
2019-05-13T07:04:51.603Z,17.1
2019-05-13T07:05:31.755Z,17.1
2019-05-13T07:06:01.760Z,17.1
2019-05-13T07:08:21.907Z,17.0
2019-05-13T07:09:01.387Z,16.9
2019-05-13T07:10:21.622Z,16.9
2019-05-13T07:11:13.882Z,17.0
2019-05-13T07:11:31.384Z,17.0
2019-05-13T07:12:31.144Z,17.0
2019-05-13T07:13:32.181Z,17.0
2019-05-13T07:14:32.029Z,17.0
2019-05-13T07:15:31.415Z,17.1
2019-05-13T07:16:31.667Z,17.0
2019-05-13T07:17:32.310Z,17.0
2019-05-13T07:18:32.112Z,17.0
2019-05-13T07:19:32.189Z,16.9
2019-05-13T07:20:32.099Z,17.0
2019-05-13T07:21:32.269Z,16.9
2019-05-13T07:22:32.102Z,16.9
2019-05-13T07:23:31.783Z,16.9
2019-05-13T07:24:32.189Z,17.0
2019-05-13T07:25:32.570Z,16.9
2019-05-13T07:26:31.437Z,17.0
2019-05-13T07:27:31.766Z,16.9
2019-05-13T07:28:32.230Z,16.9
2019-05-13T07:29:32.402Z,17.0
2019-05-13T07:30:31.601Z,16.9
2019-05-13T07:31:32.326Z,16.9
2019-05-13T07:32:31.453Z,17.0
2019-05-13T07:33:51.678Z,17.0
2019-05-13T07:34:33.358Z,16.9
2019-05-13T07:35:03.770Z,17.0
2019-05-13T07:36:22.535Z,16.9
2019-05-13T07:37:51.726Z,16.9
2019-05-13T07:38:32.335Z,16.9
2019-05-13T07:39:01.348Z,17.0
2019-05-13T07:40:22.187Z,17.0
2019-05-13T07:40:52.113Z,17.0
2019-05-13T07:41:36.250Z,17.0
2019-05-13T07:42:22.154Z,16.9
2019-05-13T07:42:52.215Z,17.0
2019-05-13T07:43:31.987Z,17.0
2019-05-13T07:44:52.138Z,17.0
2019-05-13T07:45:31.568Z,17.2
2019-05-13T07:46:02.044Z,17.1
2019-05-13T07:48:27.249Z,17.2
2019-05-13T07:48:52.063Z,17.3
2019-05-13T07:49:31.613Z,17.3
2019-05-13T07:50:02.392Z,17.2
2019-05-13T07:51:22.135Z,17.2
2019-05-13T07:52:51.541Z,17.5
2019-05-13T07:53:32.182Z,17.5
2019-05-13T07:54:02.179Z,17.6
2019-05-13T07:55:22.244Z,17.6
2019-05-13T07:55:52.436Z,17.6
2019-05-13T07:56:32.370Z,17.6
2019-05-13T07:57:21.528Z,17.6
2019-05-13T07:57:51.546Z,17.6
2019-05-13T07:58:36.311Z,17.6
2019-05-13T07:59:52.351Z,17.8
2019-05-13T08:00:32.539Z,17.9
2019-05-13T08:01:02.365Z,17.8
2019-05-13T08:03:21.551Z,17.9
2019-05-13T08:03:51.729Z,17.9
2019-05-13T08:04:33.345Z,17.9
2019-05-13T08:05:02.280Z,17.9
2019-05-13T08:06:22.089Z,18.0
2019-05-13T08:06:52.333Z,18.0
2019-05-13T08:07:31.655Z,18.1
2019-05-13T08:08:02.307Z,18.0
2019-05-13T08:09:21.723Z,18.0
2019-05-13T08:09:53.694Z,18.1
2019-05-13T08:10:32.036Z,18.1
2019-05-13T08:11:01.654Z,18.0
2019-05-13T08:13:22.424Z,18.0
2019-05-13T08:13:51.842Z,18.0
2019-05-13T08:14:32.418Z,18.0
2019-05-13T08:15:03.093Z,18.1
2019-05-13T08:16:22.380Z,18.1
2019-05-13T08:17:02.760Z,17.9
2019-05-13T08:17:32.671Z,17.9
2019-05-13T08:18:52.277Z,18.0
2019-05-13T08:19:32.652Z,18.0
2019-05-13T08:20:52.525Z,18.0
2019-05-13T08:21:32.324Z,18.0
2019-05-13T08:22:02.421Z,18.0
2019-05-13T08:23:21.869Z,18.1
2019-05-13T08:23:52.568Z,18.1
2019-05-13T08:24:31.886Z,18.1
2019-05-13T08:25:03.197Z,18.1
2019-05-13T08:26:21.915Z,18.1
2019-05-13T08:27:52.076Z,18.1
2019-05-13T08:28:32.400Z,18.1
2019-05-13T08:29:05.703Z,18.1
2019-05-13T08:30:22.798Z,18.0
2019-05-13T08:30:52.141Z,18.0
2019-05-13T08:31:32.315Z,18.0
2019-05-13T08:32:22.246Z,17.9
2019-05-13T08:32:52.369Z,17.9
2019-05-13T08:33:32.385Z,18.1
2019-05-13T08:35:00.760Z,18.1
2019-05-13T08:35:32.183Z,18.1
2019-05-13T08:36:02.242Z,18.1
2019-05-13T08:37:22.309Z,18.2
2019-05-13T08:37:52.295Z,18.0
2019-05-13T08:38:32.288Z,18.0
2019-05-13T08:39:02.742Z,18.0
2019-05-13T08:40:23.355Z,18.0
2019-05-13T08:40:52.287Z,18.0
2019-05-13T08:41:32.436Z,18.1
2019-05-13T08:42:23.444Z,18.0
2019-05-13T08:42:52.313Z,18.1
2019-05-13T08:43:32.338Z,18.1
2019-05-13T08:44:52.551Z,18.0
2019-05-13T08:45:32.388Z,18.0
2019-05-13T08:46:02.428Z,17.9
2019-05-13T08:48:22.483Z,18.1
2019-05-13T08:48:52.441Z,18.0
2019-05-13T08:49:32.803Z,18.0
2019-05-13T08:50:04.302Z,18.1
2019-05-13T08:50:42.984Z,18.2
2019-05-13T08:51:23.011Z,18.3
2019-05-13T08:52:23.016Z,18.4
2019-05-13T08:53:02.980Z,18.4
2019-05-13T08:54:23.002Z,18.5
2019-05-13T08:55:03.108Z,18.6
2019-05-13T08:55:33.107Z,18.6
2019-05-13T08:56:03.074Z,18.6
2019-05-13T08:57:33.158Z,18.8
2019-05-13T08:58:03.194Z,18.8
2019-05-13T08:59:23.273Z,18.9
2019-05-13T09:00:05.335Z,18.9
2019-05-13T09:00:33.228Z,19.0
2019-05-13T09:01:03.256Z,19.1
2019-05-13T09:03:23.321Z,19.1
2019-05-13T09:04:03.312Z,19.3
2019-05-13T09:04:33.292Z,19.2
2019-05-13T09:05:03.285Z,19.3
2019-05-13T09:06:23.266Z,19.3
2019-05-13T09:07:03.396Z,19.4
2019-05-13T09:07:33.274Z,19.3
2019-05-13T09:08:03.293Z,19.4
2019-05-13T09:09:23.349Z,19.5
2019-05-13T09:10:03.349Z,19.5
2019-05-13T09:10:33.390Z,19.5
2019-05-13T09:11:03.515Z,19.5
2019-05-13T09:13:23.365Z,19.7
2019-05-13T09:14:03.395Z,19.6
2019-05-13T09:14:33.374Z,19.7
2019-05-13T09:15:03.651Z,19.7
2019-05-13T09:17:53.421Z,19.9
2019-05-13T09:18:33.434Z,19.8
2019-05-13T09:19:04.042Z,19.8
2019-05-13T09:19:33.471Z,19.8
2019-05-13T09:20:03.458Z,19.8
2019-05-13T09:21:23.500Z,20.0
2019-05-13T09:22:23.502Z,19.9
2019-05-13T09:23:03.512Z,20.0
2019-05-13T09:23:33.511Z,19.9
2019-05-13T09:24:19.270Z,20.0
2019-05-13T09:25:23.526Z,19.9
2019-05-13T09:26:03.531Z,19.9
2019-05-13T09:26:33.580Z,19.9
2019-05-13T09:27:03.612Z,19.9
2019-05-13T09:28:23.633Z,19.8
2019-05-13T09:29:03.607Z,19.8
2019-05-13T09:29:33.614Z,19.8
2019-05-13T09:30:03.618Z,19.6
2019-05-13T09:31:23.662Z,19.6
2019-05-13T09:32:04.190Z,19.6
2019-05-13T09:32:33.642Z,19.4
2019-05-13T09:33:03.651Z,19.5
2019-05-13T09:34:23.658Z,19.4
2019-05-13T09:35:03.668Z,19.3
2019-05-13T09:35:33.675Z,19.3
2019-05-13T09:36:03.679Z,19.2
2019-05-13T09:37:23.765Z,18.9
2019-05-13T09:38:03.706Z,19.0
2019-05-13T09:38:33.719Z,18.7
2019-05-13T09:39:03.722Z,18.8
2019-05-13T09:40:53.748Z,18.6
2019-05-13T09:41:40.238Z,18.5
2019-05-13T09:42:23.783Z,18.5
2019-05-13T09:43:03.817Z,18.5
2019-05-13T09:43:33.771Z,18.2
2019-05-13T09:44:03.779Z,18.2
2019-05-13T09:45:23.794Z,18.1
2019-05-13T09:46:03.788Z,18.0
2019-05-13T09:46:33.800Z,18.0
2019-05-13T09:47:23.808Z,17.9
2019-05-13T09:48:03.846Z,17.9
2019-05-13T09:49:23.938Z,17.9
2019-05-13T09:50:04.557Z,17.8
2019-05-13T09:50:36.117Z,17.9
2019-05-13T09:51:03.878Z,17.8
2019-05-13T09:52:23.899Z,17.8
2019-05-13T09:53:03.949Z,17.8
2019-05-13T09:53:33.916Z,17.8
2019-05-13T09:54:03.935Z,17.8
2019-05-13T09:55:28.918Z,17.7
2019-05-13T09:56:03.958Z,17.8
2019-05-13T09:56:33.954Z,17.8
2019-05-13T09:57:03.984Z,17.7
2019-05-13T09:58:24.032Z,17.8
2019-05-13T09:59:04.053Z,17.8
2019-05-13T09:59:34.053Z,17.7
2019-05-13T10:00:04.057Z,17.9
2019-05-13T10:01:24.107Z,17.7
2019-05-13T10:02:24.121Z,17.7
2019-05-13T10:03:04.187Z,17.7
2019-05-13T10:03:34.148Z,17.7
2019-05-13T10:04:04.146Z,17.7
2019-05-13T10:05:24.160Z,17.5
2019-05-13T10:06:04.168Z,17.5
2019-05-13T10:06:34.172Z,17.5
2019-05-13T10:07:24.179Z,17.5
2019-05-13T10:08:04.210Z,17.4
2019-05-13T10:08:34.195Z,17.4
2019-05-13T10:08:54.209Z,17.4
2019-05-13T10:09:34.203Z,17.3
2019-05-13T10:09:54.203Z,17.3
2019-05-13T10:10:34.228Z,17.4
2019-05-13T10:11:04.233Z,17.4
2019-05-13T10:11:34.236Z,17.3
2019-05-13T10:12:24.736Z,17.3
2019-05-13T10:13:08.759Z,17.3
2019-05-13T10:14:54.361Z,17.4
2019-05-13T10:15:34.445Z,17.3
2019-05-13T10:16:04.375Z,17.3
2019-05-13T10:16:34.393Z,17.4
2019-05-13T10:17:24.378Z,17.2
2019-05-13T10:18:04.418Z,17.4
2019-05-13T10:19:24.427Z,17.2
2019-05-13T10:20:04.430Z,17.3
2019-05-13T10:22:54.535Z,17.2
2019-05-13T10:23:34.675Z,17.3
2019-05-13T10:24:54.644Z,17.2
2019-05-13T10:25:34.653Z,17.2
2019-05-13T10:27:54.674Z,17.2
2019-05-13T10:28:34.703Z,17.0
2019-05-13T10:29:54.711Z,17.0
2019-05-13T10:30:34.716Z,17.0
2019-05-13T10:32:59.187Z,17.0
2019-05-13T10:33:34.859Z,16.8
2019-05-13T10:34:54.868Z,16.8
2019-05-13T10:35:34.876Z,16.9
2019-05-13T10:37:54.938Z,16.7
2019-05-13T10:38:34.936Z,16.7
2019-05-13T10:39:54.939Z,16.7
2019-05-13T10:40:34.943Z,16.6
2019-05-13T10:42:54.982Z,16.6
2019-05-13T10:44:55.005Z,16.5
2019-05-13T10:45:35.015Z,16.6
2019-05-13T10:47:55.068Z,16.6
2019-05-13T10:48:35.082Z,16.6
2019-05-13T10:49:15.120Z,16.4
2019-05-13T10:49:55.110Z,16.4
2019-05-13T10:50:35.189Z,16.5
2019-05-13T10:51:15.107Z,16.5
2019-05-13T10:52:15.123Z,16.4
2019-05-13T10:52:55.129Z,16.5
2019-05-13T10:53:35.137Z,16.4
2019-05-13T10:54:55.214Z,16.3
2019-05-13T10:55:35.234Z,16.2
2019-05-13T10:56:15.246Z,16.2
2019-05-13T10:57:55.257Z,16.2
2019-05-13T10:58:35.297Z,16.0
2019-05-13T10:59:59.356Z,16.0
2019-05-13T11:00:35.321Z,16.0
2019-05-13T11:02:55.353Z,16.0
2019-05-13T11:03:35.359Z,16.0
2019-05-13T11:04:55.458Z,16.0
2019-05-13T11:05:40.864Z,16.0
2019-05-13T11:07:55.578Z,16.0
2019-05-13T11:08:35.481Z,16.0
2019-05-13T11:09:55.550Z,16.0
2019-05-13T11:10:35.508Z,15.9
2019-05-13T11:12:55.526Z,15.8
2019-05-13T11:13:51.994Z,15.8
2019-05-13T11:14:55.674Z,15.8
2019-05-13T11:15:40.448Z,15.6
2019-05-13T11:17:55.919Z,15.8
2019-05-13T11:18:35.958Z,15.8
2019-05-13T11:19:05.932Z,15.7
2019-05-13T11:20:06.145Z,15.8
2019-05-13T11:21:05.997Z,15.7
2019-05-13T11:22:26.011Z,15.7
2019-05-13T11:23:06.015Z,15.7
2019-05-13T11:24:06.084Z,15.7
2019-05-13T11:25:06.092Z,15.7
2019-05-13T11:26:06.105Z,15.8
2019-05-13T11:27:26.108Z,15.8
2019-05-13T11:28:06.117Z,15.8
2019-05-13T11:29:06.124Z,15.9
2019-05-13T11:30:07.169Z,15.8